sensor_id;sensor_type;location;lat;lon;timestamp;P1;durP1;ratioP1;P2;durP2;ratioP2
4726;SDS011;2377;51.734;8.950;2023-05-19T00:01:18;5.23;;;2.00;;
4726;SDS011;2377;51.734;8.950;2023-05-19T00:03:49;7.30;;;2.43;;
4726;SDS011;2377;51.734;8.950;2023-05-19T00:06:20;3.83;;;1.67;;
4726;SDS011;2377;51.734;8.950;2023-05-19T00:08:52;3.60;;;1.77;;
4726;SDS011;2377;51.734;8.950;2023-05-19T00:11:25;9.03;;;2.30;;
4726;SDS011;2377;51.734;8.950;2023-05-19T00:13:54;4.47;;;1.80;;
4726;SDS011;2377;51.734;8.950;2023-05-19T00:16:23;4.07;;;1.77;;
4726;SDS011;2377;51.734;8.950;2023-05-19T00:18:52;5.30;;;2.07;;
4726;SDS011;2377;51.734;8.950;2023-05-19T00:21:19;4.63;;;1.90;;
4726;SDS011;2377;51.734;8.950;2023-05-19T00:23:46;4.90;;;1.73;;
4726;SDS011;2377;51.734;8.950;2023-05-19T00:26:14;5.87;;;2.17;;
4726;SDS011;2377;51.734;8.950;2023-05-19T00:28:41;4.60;;;2.30;;
4726;SDS011;2377;51.734;8.950;2023-05-19T00:31:08;7.53;;;2.30;;
4726;SDS011;2377;51.734;8.950;2023-05-19T00:33:35;8.93;;;2.33;;
4726;SDS011;2377;51.734;8.950;2023-05-19T00:36:02;3.77;;;1.73;;
4726;SDS011;2377;51.734;8.950;2023-05-19T00:38:30;4.00;;;2.00;;
4726;SDS011;2377;51.734;8.950;2023-05-19T00:40:58;4.97;;;1.90;;
4726;SDS011;2377;51.734;8.950;2023-05-19T00:43:28;4.80;;;2.00;;
4726;SDS011;2377;51.734;8.950;2023-05-19T00:45:55;7.30;;;2.17;;
4726;SDS011;2377;51.734;8.950;2023-05-19T00:48:23;3.70;;;1.87;;
4726;SDS011;2377;51.734;8.950;2023-05-19T00:50:51;4.90;;;1.70;;
4726;SDS011;2377;51.734;8.950;2023-05-19T00:53:25;6.97;;;1.97;;
4726;SDS011;2377;51.734;8.950;2023-05-19T00:55:54;6.13;;;1.83;;
4726;SDS011;2377;51.734;8.950;2023-05-19T00:58:21;8.20;;;2.47;;
4726;SDS011;2377;51.734;8.950;2023-05-19T01:00:54;2.50;;;1.57;;
4726;SDS011;2377;51.734;8.950;2023-05-19T01:03:27;4.27;;;2.10;;
4726;SDS011;2377;51.734;8.950;2023-05-19T01:05:56;5.03;;;2.10;;
4726;SDS011;2377;51.734;8.950;2023-05-19T01:08:25;8.10;;;2.30;;
4726;SDS011;2377;51.734;8.950;2023-05-19T01:10:53;5.70;;;2.20;;
4726;SDS011;2377;51.734;8.950;2023-05-19T01:13:20;5.40;;;2.10;;
4726;SDS011;2377;51.734;8.950;2023-05-19T01:15:52;7.13;;;2.40;;
4726;SDS011;2377;51.734;8.950;2023-05-19T01:18:31;3.90;;;1.80;;
4726;SDS011;2377;51.734;8.950;2023-05-19T01:21:18;7.33;;;2.37;;
4726;SDS011;2377;51.734;8.950;2023-05-19T01:24:26;4.83;;;2.17;;
4726;SDS011;2377;51.734;8.950;2023-05-19T01:27:40;6.30;;;2.10;;
4726;SDS011;2377;51.734;8.950;2023-05-19T01:30:28;4.67;;;1.90;;
4726;SDS011;2377;51.734;8.950;2023-05-19T01:33:03;4.87;;;1.70;;
4726;SDS011;2377;51.734;8.950;2023-05-19T01:35:34;4.97;;;2.20;;
4726;SDS011;2377;51.734;8.950;2023-05-19T01:38:03;4.93;;;2.10;;
4726;SDS011;2377;51.734;8.950;2023-05-19T01:40:35;5.50;;;2.33;;
4726;SDS011;2377;51.734;8.950;2023-05-19T01:43:08;5.30;;;2.17;;
4726;SDS011;2377;51.734;8.950;2023-05-19T01:45:39;4.63;;;2.00;;
4726;SDS011;2377;51.734;8.950;2023-05-19T01:48:07;3.93;;;2.20;;
4726;SDS011;2377;51.734;8.950;2023-05-19T01:50:33;5.93;;;2.10;;
4726;SDS011;2377;51.734;8.950;2023-05-19T01:53:00;3.70;;;1.67;;
4726;SDS011;2377;51.734;8.950;2023-05-19T01:55:27;6.97;;;2.43;;
4726;SDS011;2377;51.734;8.950;2023-05-19T01:57:59;4.23;;;1.87;;
4726;SDS011;2377;51.734;8.950;2023-05-19T02:00:40;6.17;;;2.37;;
4726;SDS011;2377;51.734;8.950;2023-05-19T02:03:21;6.60;;;1.97;;
4726;SDS011;2377;51.734;8.950;2023-05-19T02:06:17;5.37;;;2.47;;
4726;SDS011;2377;51.734;8.950;2023-05-19T02:08:56;4.40;;;1.83;;
4726;SDS011;2377;51.734;8.950;2023-05-19T02:11:30;8.40;;;2.60;;
4726;SDS011;2377;51.734;8.950;2023-05-19T02:14:05;6.47;;;2.10;;
4726;SDS011;2377;51.734;8.950;2023-05-19T02:16:40;4.20;;;2.13;;
4726;SDS011;2377;51.734;8.950;2023-05-19T02:19:20;5.03;;;2.30;;
4726;SDS011;2377;51.734;8.950;2023-05-19T02:21:49;6.70;;;2.40;;
4726;SDS011;2377;51.734;8.950;2023-05-19T02:24:17;4.70;;;2.10;;
4726;SDS011;2377;51.734;8.950;2023-05-19T02:26:46;4.83;;;2.27;;
4726;SDS011;2377;51.734;8.950;2023-05-19T02:29:14;4.47;;;2.10;;
4726;SDS011;2377;51.734;8.950;2023-05-19T02:31:42;5.50;;;2.60;;
4726;SDS011;2377;51.734;8.950;2023-05-19T02:34:10;6.60;;;2.50;;
4726;SDS011;2377;51.734;8.950;2023-05-19T02:36:38;6.53;;;2.47;;
4726;SDS011;2377;51.734;8.950;2023-05-19T02:39:07;6.20;;;2.30;;
4726;SDS011;2377;51.734;8.950;2023-05-19T02:41:35;8.00;;;2.57;;
4726;SDS011;2377;51.734;8.950;2023-05-19T02:44:02;6.23;;;2.50;;
4726;SDS011;2377;51.734;8.950;2023-05-19T02:46:33;4.13;;;2.20;;
4726;SDS011;2377;51.734;8.950;2023-05-19T02:49:01;4.83;;;2.20;;
4726;SDS011;2377;51.734;8.950;2023-05-19T02:51:28;7.17;;;2.60;;
4726;SDS011;2377;51.734;8.950;2023-05-19T02:53:55;7.93;;;2.60;;
4726;SDS011;2377;51.734;8.950;2023-05-19T02:56:22;8.47;;;2.40;;
4726;SDS011;2377;51.734;8.950;2023-05-19T02:58:50;7.03;;;2.30;;
4726;SDS011;2377;51.734;8.950;2023-05-19T03:01:17;6.80;;;2.90;;
4726;SDS011;2377;51.734;8.950;2023-05-19T03:03:45;7.90;;;3.10;;
4726;SDS011;2377;51.734;8.950;2023-05-19T03:06:14;6.13;;;2.77;;
4726;SDS011;2377;51.734;8.950;2023-05-19T03:08:42;7.27;;;2.53;;
4726;SDS011;2377;51.734;8.950;2023-05-19T03:11:09;5.93;;;2.63;;
4726;SDS011;2377;51.734;8.950;2023-05-19T03:13:36;6.53;;;2.27;;
4726;SDS011;2377;51.734;8.950;2023-05-19T03:16:03;7.20;;;2.40;;
4726;SDS011;2377;51.734;8.950;2023-05-19T03:18:32;5.50;;;2.77;;
4726;SDS011;2377;51.734;8.950;2023-05-19T03:20:59;5.47;;;2.77;;
4726;SDS011;2377;51.734;8.950;2023-05-19T03:23:27;3.67;;;2.30;;
4726;SDS011;2377;51.734;8.950;2023-05-19T03:25:54;3.40;;;2.17;;
4726;SDS011;2377;51.734;8.950;2023-05-19T03:28:21;5.17;;;2.30;;
4726;SDS011;2377;51.734;8.950;2023-05-19T03:30:48;4.30;;;2.40;;
4726;SDS011;2377;51.734;8.950;2023-05-19T03:33:15;6.53;;;2.53;;
4726;SDS011;2377;51.734;8.950;2023-05-19T03:35:42;6.90;;;2.80;;
4726;SDS011;2377;51.734;8.950;2023-05-19T03:38:09;7.40;;;2.53;;
4726;SDS011;2377;51.734;8.950;2023-05-19T03:40:37;6.27;;;2.60;;
4726;SDS011;2377;51.734;8.950;2023-05-19T03:43:05;8.47;;;2.90;;
4726;SDS011;2377;51.734;8.950;2023-05-19T03:45:32;6.60;;;2.70;;
4726;SDS011;2377;51.734;8.950;2023-05-19T03:47:59;7.80;;;2.97;;
4726;SDS011;2377;51.734;8.950;2023-05-19T03:50:26;11.17;;;3.77;;
4726;SDS011;2377;51.734;8.950;2023-05-19T03:52:55;6.50;;;2.87;;
4726;SDS011;2377;51.734;8.950;2023-05-19T03:55:22;8.00;;;3.07;;
4726;SDS011;2377;51.734;8.950;2023-05-19T03:57:51;9.40;;;3.27;;
4726;SDS011;2377;51.734;8.950;2023-05-19T04:00:17;7.10;;;3.60;;
4726;SDS011;2377;51.734;8.950;2023-05-19T04:02:44;7.87;;;3.30;;
4726;SDS011;2377;51.734;8.950;2023-05-19T04:05:11;6.00;;;3.13;;
4726;SDS011;2377;51.734;8.950;2023-05-19T04:07:39;9.37;;;3.40;;
4726;SDS011;2377;51.734;8.950;2023-05-19T04:10:07;7.90;;;3.03;;
4726;SDS011;2377;51.734;8.950;2023-05-19T04:12:34;8.17;;;3.57;;
4726;SDS011;2377;51.734;8.950;2023-05-19T04:15:03;12.00;;;3.20;;
4726;SDS011;2377;51.734;8.950;2023-05-19T04:17:31;8.83;;;3.57;;
4726;SDS011;2377;51.734;8.950;2023-05-19T04:19:58;6.83;;;2.93;;
4726;SDS011;2377;51.734;8.950;2023-05-19T04:22:25;8.77;;;3.70;;
4726;SDS011;2377;51.734;8.950;2023-05-19T04:24:51;9.20;;;3.33;;
4726;SDS011;2377;51.734;8.950;2023-05-19T04:27:19;7.83;;;3.10;;
4726;SDS011;2377;51.734;8.950;2023-05-19T04:29:46;7.43;;;3.33;;
4726;SDS011;2377;51.734;8.950;2023-05-19T04:32:14;10.00;;;2.90;;
4726;SDS011;2377;51.734;8.950;2023-05-19T04:34:42;7.00;;;3.37;;
4726;SDS011;2377;51.734;8.950;2023-05-19T04:37:10;7.73;;;3.17;;
4726;SDS011;2377;51.734;8.950;2023-05-19T04:39:38;5.73;;;2.90;;
4726;SDS011;2377;51.734;8.950;2023-05-19T04:42:07;7.53;;;3.23;;
4726;SDS011;2377;51.734;8.950;2023-05-19T04:44:35;7.90;;;3.33;;
4726;SDS011;2377;51.734;8.950;2023-05-19T04:47:04;14.43;;;3.40;;
4726;SDS011;2377;51.734;8.950;2023-05-19T04:49:34;7.37;;;3.20;;
4726;SDS011;2377;51.734;8.950;2023-05-19T04:52:04;13.13;;;3.67;;
4726;SDS011;2377;51.734;8.950;2023-05-19T04:54:34;9.10;;;3.10;;
4726;SDS011;2377;51.734;8.950;2023-05-19T04:57:02;7.50;;;3.00;;
4726;SDS011;2377;51.734;8.950;2023-05-19T04:59:30;11.67;;;3.00;;
4726;SDS011;2377;51.734;8.950;2023-05-19T05:01:57;7.43;;;2.70;;
4726;SDS011;2377;51.734;8.950;2023-05-19T05:04:24;7.97;;;3.17;;
4726;SDS011;2377;51.734;8.950;2023-05-19T05:06:52;5.80;;;2.70;;
4726;SDS011;2377;51.734;8.950;2023-05-19T05:09:19;11.03;;;2.87;;
4726;SDS011;2377;51.734;8.950;2023-05-19T05:11:46;6.53;;;3.40;;
4726;SDS011;2377;51.734;8.950;2023-05-19T05:14:15;8.53;;;2.97;;
4726;SDS011;2377;51.734;8.950;2023-05-19T05:16:43;7.73;;;3.23;;
4726;SDS011;2377;51.734;8.950;2023-05-19T05:19:11;7.87;;;3.20;;
4726;SDS011;2377;51.734;8.950;2023-05-19T05:21:38;6.83;;;3.30;;
4726;SDS011;2377;51.734;8.950;2023-05-19T05:24:26;7.90;;;2.90;;
4726;SDS011;2377;51.734;8.950;2023-05-19T05:26:53;10.30;;;3.20;;
4726;SDS011;2377;51.734;8.950;2023-05-19T05:29:20;10.77;;;3.30;;
4726;SDS011;2377;51.734;8.950;2023-05-19T05:31:47;7.20;;;3.07;;
4726;SDS011;2377;51.734;8.950;2023-05-19T05:34:14;6.90;;;2.83;;
4726;SDS011;2377;51.734;8.950;2023-05-19T05:36:41;9.30;;;3.30;;
4726;SDS011;2377;51.734;8.950;2023-05-19T05:39:08;7.90;;;2.83;;
4726;SDS011;2377;51.734;8.950;2023-05-19T05:41:36;8.50;;;3.20;;
4726;SDS011;2377;51.734;8.950;2023-05-19T05:44:03;5.93;;;2.90;;
4726;SDS011;2377;51.734;8.950;2023-05-19T05:46:30;10.57;;;2.83;;
4726;SDS011;2377;51.734;8.950;2023-05-19T05:48:57;6.67;;;2.93;;
4726;SDS011;2377;51.734;8.950;2023-05-19T05:51:25;8.50;;;2.83;;
4726;SDS011;2377;51.734;8.950;2023-05-19T05:53:53;6.13;;;2.70;;
4726;SDS011;2377;51.734;8.950;2023-05-19T05:56:21;10.50;;;2.90;;
4726;SDS011;2377;51.734;8.950;2023-05-19T05:58:50;10.97;;;3.30;;
4726;SDS011;2377;51.734;8.950;2023-05-19T06:01:17;7.67;;;2.50;;
4726;SDS011;2377;51.734;8.950;2023-05-19T06:03:44;6.53;;;2.90;;
4726;SDS011;2377;51.734;8.950;2023-05-19T06:06:12;8.33;;;3.33;;
4726;SDS011;2377;51.734;8.950;2023-05-19T06:08:39;4.53;;;2.30;;
4726;SDS011;2377;51.734;8.950;2023-05-19T06:11:05;9.73;;;3.47;;
4726;SDS011;2377;51.734;8.950;2023-05-19T06:13:33;6.93;;;2.63;;
4726;SDS011;2377;51.734;8.950;2023-05-19T06:16:02;6.70;;;2.60;;
4726;SDS011;2377;51.734;8.950;2023-05-19T06:18:29;4.90;;;2.67;;
4726;SDS011;2377;51.734;8.950;2023-05-19T06:20:56;5.93;;;2.30;;
4726;SDS011;2377;51.734;8.950;2023-05-19T06:23:24;7.70;;;2.60;;
4726;SDS011;2377;51.734;8.950;2023-05-19T06:25:53;10.00;;;3.20;;
4726;SDS011;2377;51.734;8.950;2023-05-19T06:28:20;8.73;;;2.97;;
4726;SDS011;2377;51.734;8.950;2023-05-19T06:30:47;9.20;;;3.43;;
4726;SDS011;2377;51.734;8.950;2023-05-19T06:33:15;6.40;;;2.70;;
4726;SDS011;2377;51.734;8.950;2023-05-19T06:35:42;8.20;;;2.63;;
4726;SDS011;2377;51.734;8.950;2023-05-19T06:38:09;5.70;;;2.43;;
4726;SDS011;2377;51.734;8.950;2023-05-19T06:40:35;7.77;;;2.70;;
4726;SDS011;2377;51.734;8.950;2023-05-19T06:43:02;4.50;;;2.47;;
4726;SDS011;2377;51.734;8.950;2023-05-19T06:45:30;6.00;;;2.67;;
4726;SDS011;2377;51.734;8.950;2023-05-19T06:47:57;5.47;;;2.33;;
4726;SDS011;2377;51.734;8.950;2023-05-19T06:50:25;10.83;;;2.60;;
4726;SDS011;2377;51.734;8.950;2023-05-19T06:52:52;7.27;;;2.50;;
4726;SDS011;2377;51.734;8.950;2023-05-19T06:55:21;6.50;;;2.77;;
4726;SDS011;2377;51.734;8.950;2023-05-19T06:57:48;7.73;;;2.73;;
4726;SDS011;2377;51.734;8.950;2023-05-19T07:00:15;8.57;;;3.37;;
4726;SDS011;2377;51.734;8.950;2023-05-19T07:02:42;5.63;;;2.73;;
4726;SDS011;2377;51.734;8.950;2023-05-19T07:05:09;7.73;;;2.60;;
4726;SDS011;2377;51.734;8.950;2023-05-19T07:07:38;7.77;;;2.80;;
4726;SDS011;2377;51.734;8.950;2023-05-19T07:10:06;6.40;;;2.10;;
4726;SDS011;2377;51.734;8.950;2023-05-19T07:12:33;10.10;;;2.50;;
4726;SDS011;2377;51.734;8.950;2023-05-19T07:15:00;8.90;;;2.83;;
4726;SDS011;2377;51.734;8.950;2023-05-19T07:17:27;5.80;;;2.30;;
4726;SDS011;2377;51.734;8.950;2023-05-19T07:19:54;4.27;;;1.83;;
4726;SDS011;2377;51.734;8.950;2023-05-19T07:22:21;6.03;;;2.53;;
4726;SDS011;2377;51.734;8.950;2023-05-19T07:24:50;6.60;;;2.70;;
4726;SDS011;2377;51.734;8.950;2023-05-19T07:27:17;7.40;;;2.37;;
4726;SDS011;2377;51.734;8.950;2023-05-19T07:29:44;7.50;;;2.40;;
4726;SDS011;2377;51.734;8.950;2023-05-19T07:32:10;7.00;;;2.33;;
4726;SDS011;2377;51.734;8.950;2023-05-19T07:34:37;6.70;;;2.23;;
4726;SDS011;2377;51.734;8.950;2023-05-19T07:37:05;8.63;;;2.47;;
4726;SDS011;2377;51.734;8.950;2023-05-19T07:39:33;4.97;;;2.63;;
4726;SDS011;2377;51.734;8.950;2023-05-19T07:42:02;5.17;;;2.03;;
4726;SDS011;2377;51.734;8.950;2023-05-19T07:44:29;7.10;;;2.30;;
4726;SDS011;2377;51.734;8.950;2023-05-19T07:46:56;6.50;;;2.30;;
4726;SDS011;2377;51.734;8.950;2023-05-19T07:49:23;4.37;;;2.00;;
4726;SDS011;2377;51.734;8.950;2023-05-19T07:51:50;4.60;;;1.97;;
4726;SDS011;2377;51.734;8.950;2023-05-19T07:54:18;6.00;;;2.07;;
4726;SDS011;2377;51.734;8.950;2023-05-19T07:56:45;4.77;;;2.00;;
4726;SDS011;2377;51.734;8.950;2023-05-19T07:59:13;6.80;;;2.17;;
4726;SDS011;2377;51.734;8.950;2023-05-19T08:01:40;5.50;;;2.23;;
4726;SDS011;2377;51.734;8.950;2023-05-19T08:04:08;5.50;;;2.30;;
4726;SDS011;2377;51.734;8.950;2023-05-19T08:06:36;5.03;;;2.40;;
4726;SDS011;2377;51.734;8.950;2023-05-19T08:09:03;5.70;;;2.40;;
4726;SDS011;2377;51.734;8.950;2023-05-19T08:11:30;7.27;;;2.10;;
4726;SDS011;2377;51.734;8.950;2023-05-19T08:13:57;5.53;;;1.80;;
4726;SDS011;2377;51.734;8.950;2023-05-19T08:16:25;5.93;;;2.00;;
4726;SDS011;2377;51.734;8.950;2023-05-19T08:18:52;9.20;;;2.40;;
4726;SDS011;2377;51.734;8.950;2023-05-19T08:21:19;7.17;;;2.40;;
4726;SDS011;2377;51.734;8.950;2023-05-19T08:23:46;6.20;;;1.90;;
4726;SDS011;2377;51.734;8.950;2023-05-19T08:26:13;6.00;;;1.80;;
4726;SDS011;2377;51.734;8.950;2023-05-19T08:28:40;4.70;;;2.00;;
4726;SDS011;2377;51.734;8.950;2023-05-19T08:31:08;4.57;;;2.10;;
4726;SDS011;2377;51.734;8.950;2023-05-19T08:33:36;3.23;;;1.90;;
4726;SDS011;2377;51.734;8.950;2023-05-19T08:36:03;5.43;;;2.17;;
4726;SDS011;2377;51.734;8.950;2023-05-19T08:38:31;4.53;;;2.00;;
4726;SDS011;2377;51.734;8.950;2023-05-19T08:40:58;7.50;;;2.67;;
4726;SDS011;2377;51.734;8.950;2023-05-19T08:43:25;5.90;;;2.00;;
4726;SDS011;2377;51.734;8.950;2023-05-19T08:45:52;8.50;;;2.40;;
4726;SDS011;2377;51.734;8.950;2023-05-19T08:48:20;8.17;;;2.13;;
4726;SDS011;2377;51.734;8.950;2023-05-19T08:50:57;8.53;;;2.63;;
4726;SDS011;2377;51.734;8.950;2023-05-19T08:53:38;6.73;;;2.40;;
4726;SDS011;2377;51.734;8.950;2023-05-19T08:56:13;5.40;;;2.23;;
4726;SDS011;2377;51.734;8.950;2023-05-19T08:58:46;7.53;;;2.33;;
4726;SDS011;2377;51.734;8.950;2023-05-19T09:01:15;8.50;;;2.70;;
4726;SDS011;2377;51.734;8.950;2023-05-19T09:03:43;6.67;;;2.67;;
4726;SDS011;2377;51.734;8.950;2023-05-19T09:06:14;5.07;;;2.83;;
4726;SDS011;2377;51.734;8.950;2023-05-19T09:08:41;8.30;;;2.30;;
4726;SDS011;2377;51.734;8.950;2023-05-19T09:11:11;7.27;;;2.40;;
4726;SDS011;2377;51.734;8.950;2023-05-19T09:13:38;5.57;;;2.10;;
4726;SDS011;2377;51.734;8.950;2023-05-19T09:16:05;10.60;;;3.23;;
4726;SDS011;2377;51.734;8.950;2023-05-19T09:18:33;4.50;;;2.30;;
4726;SDS011;2377;51.734;8.950;2023-05-19T09:21:04;5.60;;;2.20;;
4726;SDS011;2377;51.734;8.950;2023-05-19T09:23:34;5.50;;;1.90;;
4726;SDS011;2377;51.734;8.950;2023-05-19T09:26:04;4.73;;;2.13;;
4726;SDS011;2377;51.734;8.950;2023-05-19T09:28:31;4.63;;;2.17;;
4726;SDS011;2377;51.734;8.950;2023-05-19T09:31:02;7.00;;;1.90;;
4726;SDS011;2377;51.734;8.950;2023-05-19T09:33:31;5.90;;;2.57;;
4726;SDS011;2377;51.734;8.950;2023-05-19T09:36:00;5.27;;;2.20;;
4726;SDS011;2377;51.734;8.950;2023-05-19T09:38:29;5.70;;;2.23;;
4726;SDS011;2377;51.734;8.950;2023-05-19T09:40:58;7.60;;;2.20;;
4726;SDS011;2377;51.734;8.950;2023-05-19T09:43:26;8.33;;;2.37;;
4726;SDS011;2377;51.734;8.950;2023-05-19T09:45:54;7.60;;;2.00;;
4726;SDS011;2377;51.734;8.950;2023-05-19T09:48:25;5.30;;;2.10;;
4726;SDS011;2377;51.734;8.950;2023-05-19T09:50:52;5.77;;;1.70;;
4726;SDS011;2377;51.734;8.950;2023-05-19T09:53:21;3.87;;;2.00;;
4726;SDS011;2377;51.734;8.950;2023-05-19T09:55:49;9.13;;;2.20;;
4726;SDS011;2377;51.734;8.950;2023-05-19T09:58:23;3.20;;;1.70;;
4726;SDS011;2377;51.734;8.950;2023-05-19T10:00:51;4.10;;;1.77;;
4726;SDS011;2377;51.734;8.950;2023-05-19T10:03:19;6.10;;;2.33;;
4726;SDS011;2377;51.734;8.950;2023-05-19T10:05:48;4.87;;;1.90;;
4726;SDS011;2377;51.734;8.950;2023-05-19T10:08:16;5.70;;;2.07;;
4726;SDS011;2377;51.734;8.950;2023-05-19T10:10:44;4.03;;;1.93;;
4726;SDS011;2377;51.734;8.950;2023-05-19T10:13:12;5.10;;;1.80;;
4726;SDS011;2377;51.734;8.950;2023-05-19T10:15:42;5.87;;;2.27;;
4726;SDS011;2377;51.734;8.950;2023-05-19T10:18:12;4.17;;;2.20;;
4726;SDS011;2377;51.734;8.950;2023-05-19T10:20:43;4.43;;;1.97;;
4726;SDS011;2377;51.734;8.950;2023-05-19T10:23:12;5.27;;;1.90;;
4726;SDS011;2377;51.734;8.950;2023-05-19T10:25:39;5.13;;;2.07;;
4726;SDS011;2377;51.734;8.950;2023-05-19T10:28:07;3.87;;;1.90;;
4726;SDS011;2377;51.734;8.950;2023-05-19T10:30:40;6.53;;;2.10;;
4726;SDS011;2377;51.734;8.950;2023-05-19T10:33:12;4.17;;;1.63;;
4726;SDS011;2377;51.734;8.950;2023-05-19T10:35:48;4.33;;;2.03;;
4726;SDS011;2377;51.734;8.950;2023-05-19T10:38:39;3.77;;;1.80;;
4726;SDS011;2377;51.734;8.950;2023-05-19T10:41:15;4.37;;;1.57;;
4726;SDS011;2377;51.734;8.950;2023-05-19T10:43:53;8.20;;;2.20;;
4726;SDS011;2377;51.734;8.950;2023-05-19T10:46:36;5.23;;;2.30;;
4726;SDS011;2377;51.734;8.950;2023-05-19T10:49:06;4.77;;;2.00;;
4726;SDS011;2377;51.734;8.950;2023-05-19T10:51:34;3.30;;;1.60;;
4726;SDS011;2377;51.734;8.950;2023-05-19T10:54:01;7.63;;;1.90;;
4726;SDS011;2377;51.734;8.950;2023-05-19T10:56:30;5.33;;;1.80;;
4726;SDS011;2377;51.734;8.950;2023-05-19T10:59:00;5.30;;;1.77;;
4726;SDS011;2377;51.734;8.950;2023-05-19T11:01:28;4.37;;;1.53;;
4726;SDS011;2377;51.734;8.950;2023-05-19T11:04:02;3.80;;;1.73;;
4726;SDS011;2377;51.734;8.950;2023-05-19T11:06:31;4.13;;;2.17;;
4726;SDS011;2377;51.734;8.950;2023-05-19T11:09:11;3.80;;;1.67;;
4726;SDS011;2377;51.734;8.950;2023-05-19T11:11:43;5.10;;;1.90;;
4726;SDS011;2377;51.734;8.950;2023-05-19T11:14:13;3.97;;;1.93;;
4726;SDS011;2377;51.734;8.950;2023-05-19T11:16:44;7.00;;;2.10;;
4726;SDS011;2377;51.734;8.950;2023-05-19T11:19:17;6.37;;;2.23;;
4726;SDS011;2377;51.734;8.950;2023-05-19T11:21:51;4.83;;;2.00;;
4726;SDS011;2377;51.734;8.950;2023-05-19T11:24:33;8.70;;;2.07;;
4726;SDS011;2377;51.734;8.950;2023-05-19T11:27:24;6.00;;;2.17;;
4726;SDS011;2377;51.734;8.950;2023-05-19T11:29:56;4.00;;;1.70;;
4726;SDS011;2377;51.734;8.950;2023-05-19T11:32:35;5.87;;;2.00;;
4726;SDS011;2377;51.734;8.950;2023-05-19T11:35:05;3.50;;;1.80;;
4726;SDS011;2377;51.734;8.950;2023-05-19T11:37:34;4.10;;;1.70;;
4726;SDS011;2377;51.734;8.950;2023-05-19T11:40:05;5.83;;;2.43;;
4726;SDS011;2377;51.734;8.950;2023-05-19T11:42:35;5.57;;;2.47;;
4726;SDS011;2377;51.734;8.950;2023-05-19T11:45:02;4.50;;;2.00;;
4726;SDS011;2377;51.734;8.950;2023-05-19T11:47:31;4.40;;;1.80;;
4726;SDS011;2377;51.734;8.950;2023-05-19T11:49:58;5.40;;;1.97;;
4726;SDS011;2377;51.734;8.950;2023-05-19T11:52:27;3.67;;;2.10;;
4726;SDS011;2377;51.734;8.950;2023-05-19T11:54:54;3.80;;;1.97;;
4726;SDS011;2377;51.734;8.950;2023-05-19T11:57:25;4.60;;;1.90;;
4726;SDS011;2377;51.734;8.950;2023-05-19T11:59:52;3.57;;;1.90;;
4726;SDS011;2377;51.734;8.950;2023-05-19T12:02:21;3.93;;;1.70;;
4726;SDS011;2377;51.734;8.950;2023-05-19T12:04:50;6.10;;;2.03;;
4726;SDS011;2377;51.734;8.950;2023-05-19T12:07:18;4.77;;;1.90;;
4726;SDS011;2377;51.734;8.950;2023-05-19T12:09:50;4.47;;;1.90;;
4726;SDS011;2377;51.734;8.950;2023-05-19T12:12:20;3.90;;;1.73;;
4726;SDS011;2377;51.734;8.950;2023-05-19T12:14:48;6.07;;;2.30;;
4726;SDS011;2377;51.734;8.950;2023-05-19T12:17:17;6.83;;;2.27;;
4726;SDS011;2377;51.734;8.950;2023-05-19T12:19:47;5.60;;;1.80;;
4726;SDS011;2377;51.734;8.950;2023-05-19T12:22:16;5.70;;;1.70;;
4726;SDS011;2377;51.734;8.950;2023-05-19T12:24:44;5.50;;;1.87;;
4726;SDS011;2377;51.734;8.950;2023-05-19T12:27:16;6.53;;;2.10;;
4726;SDS011;2377;51.734;8.950;2023-05-19T12:29:48;4.70;;;1.50;;
4726;SDS011;2377;51.734;8.950;2023-05-19T12:32:17;5.70;;;1.97;;
4726;SDS011;2377;51.734;8.950;2023-05-19T12:34:47;3.53;;;1.70;;
4726;SDS011;2377;51.734;8.950;2023-05-19T12:37:19;3.67;;;1.70;;
4726;SDS011;2377;51.734;8.950;2023-05-19T12:39:47;4.43;;;2.10;;
4726;SDS011;2377;51.734;8.950;2023-05-19T12:42:15;4.50;;;1.97;;
4726;SDS011;2377;51.734;8.950;2023-05-19T12:44:43;4.50;;;1.70;;
4726;SDS011;2377;51.734;8.950;2023-05-19T12:47:12;3.67;;;1.80;;
4726;SDS011;2377;51.734;8.950;2023-05-19T12:49:52;5.17;;;2.07;;
4726;SDS011;2377;51.734;8.950;2023-05-19T12:52:20;7.57;;;1.70;;
4726;SDS011;2377;51.734;8.950;2023-05-19T12:54:48;4.30;;;2.10;;
4726;SDS011;2377;51.734;8.950;2023-05-19T12:57:18;3.33;;;2.00;;
4726;SDS011;2377;51.734;8.950;2023-05-19T12:59:47;3.97;;;2.17;;
4726;SDS011;2377;51.734;8.950;2023-05-19T13:02:14;6.50;;;1.77;;
4726;SDS011;2377;51.734;8.950;2023-05-19T13:04:42;4.30;;;2.03;;
4726;SDS011;2377;51.734;8.950;2023-05-19T13:07:09;3.57;;;1.50;;
4726;SDS011;2377;51.734;8.950;2023-05-19T13:09:36;7.47;;;2.30;;
4726;SDS011;2377;51.734;8.950;2023-05-19T13:12:03;3.90;;;1.93;;
4726;SDS011;2377;51.734;8.950;2023-05-19T13:14:32;6.33;;;1.97;;
4726;SDS011;2377;51.734;8.950;2023-05-19T13:16:59;4.67;;;2.20;;
4726;SDS011;2377;51.734;8.950;2023-05-19T13:19:26;4.63;;;1.87;;
4726;SDS011;2377;51.734;8.950;2023-05-19T13:21:53;3.80;;;2.03;;
4726;SDS011;2377;51.734;8.950;2023-05-19T13:24:20;3.70;;;1.73;;
4726;SDS011;2377;51.734;8.950;2023-05-19T13:26:47;5.30;;;1.60;;
4726;SDS011;2377;51.734;8.950;2023-05-19T13:29:13;4.47;;;1.90;;
4726;SDS011;2377;51.734;8.950;2023-05-19T13:31:42;3.83;;;1.73;;
4726;SDS011;2377;51.734;8.950;2023-05-19T13:34:09;4.77;;;2.20;;
4726;SDS011;2377;51.734;8.950;2023-05-19T13:36:36;6.30;;;1.83;;
4726;SDS011;2377;51.734;8.950;2023-05-19T13:39:03;4.00;;;1.70;;
4726;SDS011;2377;51.734;8.950;2023-05-19T13:41:30;4.33;;;2.13;;
4726;SDS011;2377;51.734;8.950;2023-05-19T13:43:57;5.37;;;2.27;;
4726;SDS011;2377;51.734;8.950;2023-05-19T13:46:24;2.90;;;1.70;;
4726;SDS011;2377;51.734;8.950;2023-05-19T13:48:52;4.20;;;1.97;;
4726;SDS011;2377;51.734;8.950;2023-05-19T13:51:19;5.07;;;2.13;;
4726;SDS011;2377;51.734;8.950;2023-05-19T13:53:46;3.87;;;1.67;;
4726;SDS011;2377;51.734;8.950;2023-05-19T13:56:13;4.90;;;1.90;;
4726;SDS011;2377;51.734;8.950;2023-05-19T13:58:40;4.73;;;1.83;;
4726;SDS011;2377;51.734;8.950;2023-05-19T14:01:07;3.80;;;1.70;;
4726;SDS011;2377;51.734;8.950;2023-05-19T14:03:34;3.20;;;1.60;;
4726;SDS011;2377;51.734;8.950;2023-05-19T14:06:02;4.90;;;1.67;;
4726;SDS011;2377;51.734;8.950;2023-05-19T14:08:29;5.83;;;2.00;;
4726;SDS011;2377;51.734;8.950;2023-05-19T14:10:56;4.23;;;2.20;;
4726;SDS011;2377;51.734;8.950;2023-05-19T14:13:23;2.90;;;1.53;;
4726;SDS011;2377;51.734;8.950;2023-05-19T14:15:51;5.90;;;1.50;;
4726;SDS011;2377;51.734;8.950;2023-05-19T14:18:18;5.97;;;2.20;;
4726;SDS011;2377;51.734;8.950;2023-05-19T14:20:44;2.80;;;1.67;;
4726;SDS011;2377;51.734;8.950;2023-05-19T14:23:13;3.63;;;1.80;;
4726;SDS011;2377;51.734;8.950;2023-05-19T14:25:41;3.27;;;1.70;;
4726;SDS011;2377;51.734;8.950;2023-05-19T14:28:08;4.30;;;1.97;;
4726;SDS011;2377;51.734;8.950;2023-05-19T14:30:35;9.13;;;2.40;;
4726;SDS011;2377;51.734;8.950;2023-05-19T14:33:02;4.03;;;1.77;;
4726;SDS011;2377;51.734;8.950;2023-05-19T14:35:29;5.00;;;1.83;;
4726;SDS011;2377;51.734;8.950;2023-05-19T14:37:56;5.33;;;2.00;;
4726;SDS011;2377;51.734;8.950;2023-05-19T14:40:24;4.40;;;1.60;;
4726;SDS011;2377;51.734;8.950;2023-05-19T14:42:52;2.90;;;1.60;;
4726;SDS011;2377;51.734;8.950;2023-05-19T14:45:19;6.03;;;1.60;;
4726;SDS011;2377;51.734;8.950;2023-05-19T14:47:45;4.40;;;1.90;;
4726;SDS011;2377;51.734;8.950;2023-05-19T14:50:12;4.63;;;1.97;;
4726;SDS011;2377;51.734;8.950;2023-05-19T14:52:39;4.63;;;1.30;;
4726;SDS011;2377;51.734;8.950;2023-05-19T14:55:07;3.60;;;1.90;;
4726;SDS011;2377;51.734;8.950;2023-05-19T14:57:35;4.50;;;2.13;;
4726;SDS011;2377;51.734;8.950;2023-05-19T15:00:03;4.63;;;1.80;;
4726;SDS011;2377;51.734;8.950;2023-05-19T15:02:32;5.67;;;2.20;;
4726;SDS011;2377;51.734;8.950;2023-05-19T15:04:59;4.57;;;1.90;;
4726;SDS011;2377;51.734;8.950;2023-05-19T15:07:30;2.47;;;1.43;;
4726;SDS011;2377;51.734;8.950;2023-05-19T15:09:58;4.73;;;2.20;;
4726;SDS011;2377;51.734;8.950;2023-05-19T15:12:25;3.27;;;1.77;;
4726;SDS011;2377;51.734;8.950;2023-05-19T15:14:53;3.73;;;1.53;;
4726;SDS011;2377;51.734;8.950;2023-05-19T15:17:20;3.70;;;1.67;;
4726;SDS011;2377;51.734;8.950;2023-05-19T15:19:48;3.27;;;1.70;;
4726;SDS011;2377;51.734;8.950;2023-05-19T15:22:15;3.87;;;1.90;;
4726;SDS011;2377;51.734;8.950;2023-05-19T15:24:41;3.73;;;1.40;;
4726;SDS011;2377;51.734;8.950;2023-05-19T15:27:08;3.73;;;1.87;;